sensor_id;sensor_type;location;lat;lon;timestamp;P1;durP1;ratioP1;P2;durP2;ratioP2
55758;SDS011;41678;52.126;20.664;2023-05-18T00:01:43;9.75;;;2.30;;
55758;SDS011;41678;52.126;20.664;2023-05-18T00:07:03;17.00;;;2.53;;
55758;SDS011;41678;52.126;20.664;2023-05-18T00:12:23;8.95;;;1.77;;
55758;SDS011;41678;52.126;20.664;2023-05-18T00:17:43;7.03;;;1.80;;
55758;SDS011;41678;52.126;20.664;2023-05-18T00:23:03;8.90;;;1.48;;
55758;SDS011;41678;52.126;20.664;2023-05-18T00:28:24;8.93;;;1.75;;
55758;SDS011;41678;52.126;20.664;2023-05-18T00:33:44;6.80;;;1.40;;
55758;SDS011;41678;52.126;20.664;2023-05-18T00:39:05;12.35;;;1.75;;
55758;SDS011;41678;52.126;20.664;2023-05-18T00:49:46;19.30;;;1.90;;
55758;SDS011;41678;52.126;20.664;2023-05-18T00:55:05;9.07;;;1.67;;
55758;SDS011;41678;52.126;20.664;2023-05-18T01:00:27;10.82;;;1.33;;
55758;SDS011;41678;52.126;20.664;2023-05-18T01:05:47;11.60;;;1.50;;
55758;SDS011;41678;52.126;20.664;2023-05-18T01:11:18;9.25;;;1.67;;
55758;SDS011;41678;52.126;20.664;2023-05-18T01:16:55;10.50;;;1.90;;
55758;SDS011;41678;52.126;20.664;2023-05-18T01:28:19;8.50;;;1.63;;
55758;SDS011;41678;52.126;20.664;2023-05-18T01:33:46;11.75;;;1.77;;
55758;SDS011;41678;52.126;20.664;2023-05-18T01:39:06;10.13;;;1.42;;
55758;SDS011;41678;52.126;20.664;2023-05-18T01:44:30;8.13;;;2.05;;
55758;SDS011;41678;52.126;20.664;2023-05-18T01:49:57;13.63;;;1.92;;
55758;SDS011;41678;52.126;20.664;2023-05-18T01:55:22;5.40;;;1.50;;
55758;SDS011;41678;52.126;20.664;2023-05-18T02:00:44;7.20;;;1.90;;
55758;SDS011;41678;52.126;20.664;2023-05-18T02:11:24;14.52;;;1.50;;
55758;SDS011;41678;52.126;20.664;2023-05-18T02:16:44;15.50;;;1.80;;
55758;SDS011;41678;52.126;20.664;2023-05-18T02:22:05;8.75;;;1.88;;
55758;SDS011;41678;52.126;20.664;2023-05-18T02:27:25;7.35;;;1.15;;
55758;SDS011;41678;52.126;20.664;2023-05-18T02:32:46;8.10;;;1.52;;
55758;SDS011;41678;52.126;20.664;2023-05-18T02:38:07;10.88;;;1.52;;
55758;SDS011;41678;52.126;20.664;2023-05-18T02:43:26;15.60;;;1.55;;
55758;SDS011;41678;52.126;20.664;2023-05-18T02:48:46;6.72;;;1.75;;
55758;SDS011;41678;52.126;20.664;2023-05-18T02:54:06;11.30;;;1.38;;
55758;SDS011;41678;52.126;20.664;2023-05-18T02:59:29;13.45;;;2.08;;
55758;SDS011;41678;52.126;20.664;2023-05-18T03:04:50;7.57;;;1.60;;
55758;SDS011;41678;52.126;20.664;2023-05-18T03:10:17;6.07;;;1.58;;
55758;SDS011;41678;52.126;20.664;2023-05-18T03:15:38;4.93;;;1.57;;
55758;SDS011;41678;52.126;20.664;2023-05-18T03:20:59;8.20;;;1.30;;
55758;SDS011;41678;52.126;20.664;2023-05-18T03:26:20;12.65;;;2.08;;
55758;SDS011;41678;52.126;20.664;2023-05-18T03:31:45;16.02;;;2.00;;
55758;SDS011;41678;52.126;20.664;2023-05-18T03:37:06;19.97;;;2.80;;
55758;SDS011;41678;52.126;20.664;2023-05-18T03:42:26;7.10;;;1.63;;
55758;SDS011;41678;52.126;20.664;2023-05-18T03:47:46;15.88;;;2.42;;
55758;SDS011;41678;52.126;20.664;2023-05-18T03:53:06;6.55;;;1.90;;
55758;SDS011;41678;52.126;20.664;2023-05-18T03:58:25;14.32;;;2.00;;
55758;SDS011;41678;52.126;20.664;2023-05-18T04:03:46;9.15;;;1.85;;
55758;SDS011;41678;52.126;20.664;2023-05-18T04:09:06;7.28;;;1.90;;
55758;SDS011;41678;52.126;20.664;2023-05-18T04:14:25;9.75;;;2.13;;
55758;SDS011;41678;52.126;20.664;2023-05-18T04:19:46;10.60;;;2.10;;
55758;SDS011;41678;52.126;20.664;2023-05-18T04:25:08;16.88;;;2.38;;
55758;SDS011;41678;52.126;20.664;2023-05-18T04:30:31;16.20;;;2.38;;
55758;SDS011;41678;52.126;20.664;2023-05-18T04:35:51;17.95;;;1.67;;
55758;SDS011;41678;52.126;20.664;2023-05-18T04:41:15;9.45;;;1.83;;
55758;SDS011;41678;52.126;20.664;2023-05-18T04:46:40;10.55;;;2.08;;
55758;SDS011;41678;52.126;20.664;2023-05-18T04:52:00;8.23;;;1.77;;
55758;SDS011;41678;52.126;20.664;2023-05-18T04:57:20;10.48;;;1.42;;
55758;SDS011;41678;52.126;20.664;2023-05-18T05:02:40;11.35;;;2.20;;
55758;SDS011;41678;52.126;20.664;2023-05-18T05:08:00;8.63;;;2.38;;
55758;SDS011;41678;52.126;20.664;2023-05-18T05:13:23;10.68;;;2.33;;
55758;SDS011;41678;52.126;20.664;2023-05-18T05:18:42;7.07;;;1.48;;
55758;SDS011;41678;52.126;20.664;2023-05-18T05:24:02;7.22;;;1.48;;
55758;SDS011;41678;52.126;20.664;2023-05-18T05:34:44;4.88;;;1.35;;
55758;SDS011;41678;52.126;20.664;2023-05-18T05:40:07;9.40;;;1.85;;
55758;SDS011;41678;52.126;20.664;2023-05-18T05:45:33;5.25;;;1.30;;
55758;SDS011;41678;52.126;20.664;2023-05-18T05:50:56;11.80;;;1.30;;
55758;SDS011;41678;52.126;20.664;2023-05-18T05:56:16;7.57;;;1.42;;
55758;SDS011;41678;52.126;20.664;2023-05-18T06:01:36;6.13;;;1.23;;
55758;SDS011;41678;52.126;20.664;2023-05-18T06:06:56;6.72;;;1.50;;
55758;SDS011;41678;52.126;20.664;2023-05-18T06:12:16;7.30;;;1.42;;
55758;SDS011;41678;52.126;20.664;2023-05-18T06:17:36;8.05;;;1.35;;
55758;SDS011;41678;52.126;20.664;2023-05-18T06:22:57;5.18;;;1.33;;
55758;SDS011;41678;52.126;20.664;2023-05-18T06:28:30;13.75;;;1.00;;
55758;SDS011;41678;52.126;20.664;2023-05-18T06:34:00;8.02;;;1.45;;
55758;SDS011;41678;52.126;20.664;2023-05-18T06:39:20;7.25;;;1.67;;
55758;SDS011;41678;52.126;20.664;2023-05-18T06:44:39;5.03;;;1.13;;
55758;SDS011;41678;52.126;20.664;2023-05-18T06:50:10;5.28;;;0.88;;
55758;SDS011;41678;52.126;20.664;2023-05-18T06:55:30;11.35;;;1.30;;
55758;SDS011;41678;52.126;20.664;2023-05-18T07:00:50;6.65;;;1.63;;
55758;SDS011;41678;52.126;20.664;2023-05-18T07:06:10;5.40;;;1.48;;
55758;SDS011;41678;52.126;20.664;2023-05-18T07:11:30;6.05;;;1.58;;
55758;SDS011;41678;52.126;20.664;2023-05-18T07:16:49;3.45;;;1.02;;
55758;SDS011;41678;52.126;20.664;2023-05-18T07:22:09;4.95;;;1.08;;
55758;SDS011;41678;52.126;20.664;2023-05-18T07:27:28;4.50;;;0.90;;
55758;SDS011;41678;52.126;20.664;2023-05-18T07:32:48;3.75;;;0.93;;
55758;SDS011;41678;52.126;20.664;2023-05-18T07:38:09;4.13;;;1.13;;
55758;SDS011;41678;52.126;20.664;2023-05-18T07:43:29;10.48;;;1.10;;
55758;SDS011;41678;52.126;20.664;2023-05-18T07:48:49;2.88;;;0.70;;
55758;SDS011;41678;52.126;20.664;2023-05-18T07:54:09;3.80;;;1.05;;
55758;SDS011;41678;52.126;20.664;2023-05-18T07:59:28;2.95;;;0.80;;
55758;SDS011;41678;52.126;20.664;2023-05-18T08:04:48;6.07;;;0.88;;
55758;SDS011;41678;52.126;20.664;2023-05-18T08:10:07;7.03;;;0.90;;
55758;SDS011;41678;52.126;20.664;2023-05-18T08:15:27;10.25;;;0.82;;
55758;SDS011;41678;52.126;20.664;2023-05-18T08:20:47;3.55;;;0.88;;
55758;SDS011;41678;52.126;20.664;2023-05-18T08:26:07;3.75;;;1.10;;
55758;SDS011;41678;52.126;20.664;2023-05-18T08:31:27;2.42;;;0.52;;
55758;SDS011;41678;52.126;20.664;2023-05-18T08:36:46;3.08;;;0.70;;
55758;SDS011;41678;52.126;20.664;2023-05-18T08:42:07;2.47;;;0.80;;
55758;SDS011;41678;52.126;20.664;2023-05-18T08:47:34;4.88;;;0.95;;
55758;SDS011;41678;52.126;20.664;2023-05-18T08:52:55;2.65;;;0.80;;
55758;SDS011;41678;52.126;20.664;2023-05-18T08:58:20;8.93;;;1.45;;
55758;SDS011;41678;52.126;20.664;2023-05-18T09:03:50;5.20;;;0.90;;
55758;SDS011;41678;52.126;20.664;2023-05-18T09:09:12;2.03;;;0.70;;
55758;SDS011;41678;52.126;20.664;2023-05-18T09:14:32;3.72;;;0.70;;
55758;SDS011;41678;52.126;20.664;2023-05-18T09:19:51;3.97;;;0.90;;
55758;SDS011;41678;52.126;20.664;2023-05-18T09:25:11;2.20;;;0.60;;
55758;SDS011;41678;52.126;20.664;2023-05-18T09:30:40;5.72;;;0.70;;
55758;SDS011;41678;52.126;20.664;2023-05-18T09:36:01;3.22;;;0.70;;
55758;SDS011;41678;52.126;20.664;2023-05-18T09:46:44;3.63;;;1.13;;
55758;SDS011;41678;52.126;20.664;2023-05-18T09:52:07;8.23;;;0.98;;
55758;SDS011;41678;52.126;20.664;2023-05-18T09:57:29;5.53;;;1.60;;
55758;SDS011;41678;52.126;20.664;2023-05-18T10:02:49;3.60;;;0.70;;
55758;SDS011;41678;52.126;20.664;2023-05-18T10:08:11;2.28;;;0.68;;
55758;SDS011;41678;52.126;20.664;2023-05-18T10:18:52;3.95;;;1.00;;
55758;SDS011;41678;52.126;20.664;2023-05-18T10:24:13;5.72;;;1.10;;
55758;SDS011;41678;52.126;20.664;2023-05-18T10:29:38;5.30;;;0.88;;
55758;SDS011;41678;52.126;20.664;2023-05-18T10:34:59;2.40;;;0.73;;
55758;SDS011;41678;52.126;20.664;2023-05-18T10:40:20;3.70;;;0.80;;
55758;SDS011;41678;52.126;20.664;2023-05-18T10:45:43;4.53;;;0.98;;
55758;SDS011;41678;52.126;20.664;2023-05-18T10:51:05;4.93;;;0.82;;
55758;SDS011;41678;52.126;20.664;2023-05-18T10:56:26;4.22;;;0.77;;
55758;SDS011;41678;52.126;20.664;2023-05-18T11:01:46;5.53;;;0.82;;
55758;SDS011;41678;52.126;20.664;2023-05-18T11:07:11;2.65;;;0.80;;
55758;SDS011;41678;52.126;20.664;2023-05-18T11:12:32;3.05;;;1.00;;
55758;SDS011;41678;52.126;20.664;2023-05-18T11:18:13;5.70;;;0.88;;
55758;SDS011;41678;52.126;20.664;2023-05-18T11:23:33;3.75;;;1.02;;
55758;SDS011;41678;52.126;20.664;2023-05-18T11:28:53;11.15;;;1.65;;
55758;SDS011;41678;52.126;20.664;2023-05-18T11:39:54;2.72;;;0.80;;
55758;SDS011;41678;52.126;20.664;2023-05-18T11:45:14;4.13;;;0.93;;
55758;SDS011;41678;52.126;20.664;2023-05-18T11:50:35;2.58;;;0.70;;
55758;SDS011;41678;52.126;20.664;2023-05-18T11:55:54;2.25;;;0.73;;
55758;SDS011;41678;52.126;20.664;2023-05-18T12:01:17;3.88;;;0.70;;
55758;SDS011;41678;52.126;20.664;2023-05-18T12:06:37;2.95;;;0.80;;
55758;SDS011;41678;52.126;20.664;2023-05-18T12:11:57;4.40;;;1.45;;
55758;SDS011;41678;52.126;20.664;2023-05-18T12:17:16;2.53;;;0.68;;
55758;SDS011;41678;52.126;20.664;2023-05-18T12:22:37;4.45;;;1.08;;
55758;SDS011;41678;52.126;20.664;2023-05-18T12:27:58;2.67;;;0.70;;
55758;SDS011;41678;52.126;20.664;2023-05-18T12:33:18;4.47;;;0.85;;
55758;SDS011;41678;52.126;20.664;2023-05-18T12:38:39;11.13;;;0.98;;
55758;SDS011;41678;52.126;20.664;2023-05-18T12:43:59;4.70;;;0.80;;
55758;SDS011;41678;52.126;20.664;2023-05-18T12:49:19;3.13;;;0.85;;
55758;SDS011;41678;52.126;20.664;2023-05-18T12:54:48;7.25;;;1.10;;
55758;SDS011;41678;52.126;20.664;2023-05-18T13:00:13;2.55;;;0.68;;
55758;SDS011;41678;52.126;20.664;2023-05-18T13:05:33;3.50;;;0.77;;
55758;SDS011;41678;52.126;20.664;2023-05-18T13:10:53;1.90;;;0.63;;
55758;SDS011;41678;52.126;20.664;2023-05-18T13:16:15;1.77;;;0.63;;
55758;SDS011;41678;52.126;20.664;2023-05-18T13:21:35;11.82;;;0.95;;
55758;SDS011;41678;52.126;20.664;2023-05-18T13:26:55;5.15;;;1.27;;
55758;SDS011;41678;52.126;20.664;2023-05-18T13:32:15;2.83;;;0.63;;
55758;SDS011;41678;52.126;20.664;2023-05-18T13:37:34;5.82;;;1.10;;
55758;SDS011;41678;52.126;20.664;2023-05-18T13:42:54;2.75;;;0.80;;
55758;SDS011;41678;52.126;20.664;2023-05-18T13:48:13;1.98;;;0.60;;
55758;SDS011;41678;52.126;20.664;2023-05-18T13:53:33;5.95;;;0.95;;
55758;SDS011;41678;52.126;20.664;2023-05-18T13:58:53;10.35;;;1.00;;
55758;SDS011;41678;52.126;20.664;2023-05-18T14:04:12;3.33;;;0.85;;
55758;SDS011;41678;52.126;20.664;2023-05-18T14:09:32;3.38;;;0.88;;
55758;SDS011;41678;52.126;20.664;2023-05-18T14:14:51;4.90;;;0.90;;
55758;SDS011;41678;52.126;20.664;2023-05-18T14:20:11;6.78;;;1.30;;
55758;SDS011;41678;52.126;20.664;2023-05-18T14:25:31;14.25;;;1.40;;
55758;SDS011;41678;52.126;20.664;2023-05-18T14:30:57;9.20;;;1.33;;
55758;SDS011;41678;52.126;20.664;2023-05-18T14:36:17;5.45;;;1.27;;
55758;SDS011;41678;52.126;20.664;2023-05-18T14:41:36;14.40;;;1.42;;
55758;SDS011;41678;52.126;20.664;2023-05-18T14:46:56;3.90;;;1.10;;
55758;SDS011;41678;52.126;20.664;2023-05-18T14:52:16;3.78;;;0.75;;
55758;SDS011;41678;52.126;20.664;2023-05-18T14:57:35;4.65;;;0.98;;
55758;SDS011;41678;52.126;20.664;2023-05-18T15:02:55;6.43;;;1.00;;
55758;SDS011;41678;52.126;20.664;2023-05-18T15:08:16;3.20;;;0.80;;
55758;SDS011;41678;52.126;20.664;2023-05-18T15:13:36;5.10;;;0.93;;
55758;SDS011;41678;52.126;20.664;2023-05-18T15:18:56;6.32;;;1.80;;
55758;SDS011;41678;52.126;20.664;2023-05-18T15:24:16;4.90;;;1.20;;
55758;SDS011;41678;52.126;20.664;2023-05-18T15:29:35;10.10;;;1.33;;
55758;SDS011;41678;52.126;20.664;2023-05-18T15:34:54;5.30;;;1.27;;
55758;SDS011;41678;52.126;20.664;2023-05-18T15:40:17;3.75;;;1.10;;
55758;SDS011;41678;52.126;20.664;2023-05-18T15:45:36;4.95;;;1.02;;
55758;SDS011;41678;52.126;20.664;2023-05-18T15:50:56;2.63;;;0.90;;
55758;SDS011;41678;52.126;20.664;2023-05-18T15:56:15;2.90;;;0.88;;
55758;SDS011;41678;52.126;20.664;2023-05-18T16:01:36;3.42;;;0.88;;
55758;SDS011;41678;52.126;20.664;2023-05-18T16:06:56;3.83;;;1.10;;
55758;SDS011;41678;52.126;20.664;2023-05-18T16:12:16;6.10;;;1.20;;
55758;SDS011;41678;52.126;20.664;2023-05-18T16:17:35;5.15;;;1.20;;
55758;SDS011;41678;52.126;20.664;2023-05-18T16:22:55;4.53;;;1.20;;
55758;SDS011;41678;52.126;20.664;2023-05-18T16:28:14;4.57;;;1.23;;
55758;SDS011;41678;52.126;20.664;2023-05-18T16:33:34;6.90;;;1.20;;
55758;SDS011;41678;52.126;20.664;2023-05-18T16:38:54;3.97;;;0.95;;
55758;SDS011;41678;52.126;20.664;2023-05-18T16:44:13;7.03;;;1.48;;
55758;SDS011;41678;52.126;20.664;2023-05-18T16:49:33;8.60;;;1.10;;
55758;SDS011;41678;52.126;20.664;2023-05-18T16:54:52;12.07;;;1.42;;
55758;SDS011;41678;52.126;20.664;2023-05-18T17:00:12;9.98;;;0.80;;
55758;SDS011;41678;52.126;20.664;2023-05-18T17:05:32;6.85;;;1.13;;
55758;SDS011;41678;52.126;20.664;2023-05-18T17:10:52;5.38;;;1.08;;
55758;SDS011;41678;52.126;20.664;2023-05-18T17:16:12;6.22;;;1.40;;
55758;SDS011;41678;52.126;20.664;2023-05-18T17:21:34;7.45;;;1.50;;
55758;SDS011;41678;52.126;20.664;2023-05-18T17:26:54;7.97;;;1.70;;
55758;SDS011;41678;52.126;20.664;2023-05-18T17:32:14;9.15;;;1.70;;
55758;SDS011;41678;52.126;20.664;2023-05-18T17:37:34;15.23;;;1.83;;
55758;SDS011;41678;52.126;20.664;2023-05-18T17:42:54;4.50;;;1.40;;
55758;SDS011;41678;52.126;20.664;2023-05-18T17:48:13;12.60;;;1.80;;
55758;SDS011;41678;52.126;20.664;2023-05-18T17:53:33;5.72;;;1.40;;
55758;SDS011;41678;52.126;20.664;2023-05-18T17:58:52;5.60;;;1.40;;
55758;SDS011;41678;52.126;20.664;2023-05-18T18:04:12;4.60;;;1.25;;
55758;SDS011;41678;52.126;20.664;2023-05-18T18:09:31;4.82;;;1.60;;
55758;SDS011;41678;52.126;20.664;2023-05-18T18:14:51;8.07;;;1.30;;
55758;SDS011;41678;52.126;20.664;2023-05-18T18:20:11;13.23;;;1.85;;
55758;SDS011;41678;52.126;20.664;2023-05-18T18:25:30;7.00;;;2.40;;
55758;SDS011;41678;52.126;20.664;2023-05-18T18:30:50;6.97;;;1.92;;
55758;SDS011;41678;52.126;20.664;2023-05-18T18:36:10;11.60;;;1.77;;
55758;SDS011;41678;52.126;20.664;2023-05-18T18:41:30;5.82;;;1.77;;
55758;SDS011;41678;52.126;20.664;2023-05-18T18:46:54;6.07;;;1.85;;
55758;SDS011;41678;52.126;20.664;2023-05-18T18:52:14;8.25;;;2.22;;
55758;SDS011;41678;52.126;20.664;2023-05-18T18:57:33;18.00;;;2.70;;
55758;SDS011;41678;52.126;20.664;2023-05-18T19:02:53;7.68;;;2.50;;
55758;SDS011;41678;52.126;20.664;2023-05-18T19:08:13;11.40;;;2.90;;
55758;SDS011;41678;52.126;20.664;2023-05-18T19:13:34;17.73;;;2.60;;
55758;SDS011;41678;52.126;20.664;2023-05-18T19:18:54;8.18;;;2.25;;
55758;SDS011;41678;52.126;20.664;2023-05-18T19:24:14;10.13;;;2.88;;
55758;SDS011;41678;52.126;20.664;2023-05-18T19:29:34;9.65;;;3.00;;
55758;SDS011;41678;52.126;20.664;2023-05-18T19:34:57;9.05;;;3.20;;
55758;SDS011;41678;52.126;20.664;2023-05-18T19:40:16;17.38;;;4.68;;
55758;SDS011;41678;52.126;20.664;2023-05-18T19:45:36;22.17;;;5.72;;
55758;SDS011;41678;52.126;20.664;2023-05-18T19:50:56;17.40;;;6.43;;
55758;SDS011;41678;52.126;20.664;2023-05-18T19:56:15;19.85;;;6.25;;
55758;SDS011;41678;52.126;20.664;2023-05-18T20:01:35;18.02;;;7.13;;
55758;SDS011;41678;52.126;20.664;2023-05-18T20:06:58;21.55;;;7.10;;
55758;SDS011;41678;52.126;20.664;2023-05-18T20:12:18;16.55;;;7.55;;
55758;SDS011;41678;52.126;20.664;2023-05-18T20:17:38;20.08;;;9.10;;
55758;SDS011;41678;52.126;20.664;2023-05-18T20:22:58;22.50;;;8.40;;
55758;SDS011;41678;52.126;20.664;2023-05-18T20:28:18;16.35;;;6.40;;
55758;SDS011;41678;52.126;20.664;2023-05-18T20:33:38;19.45;;;7.30;;
55758;SDS011;41678;52.126;20.664;2023-05-18T20:38:58;18.52;;;6.55;;
55758;SDS011;41678;52.126;20.664;2023-05-18T20:44:18;23.63;;;8.73;;
55758;SDS011;41678;52.126;20.664;2023-05-18T20:49:41;22.25;;;7.90;;
55758;SDS011;41678;52.126;20.664;2023-05-18T20:55:01;20.92;;;7.53;;
55758;SDS011;41678;52.126;20.664;2023-05-18T21:00:20;19.80;;;7.57;;
55758;SDS011;41678;52.126;20.664;2023-05-18T21:05:40;28.88;;;8.57;;
55758;SDS011;41678;52.126;20.664;2023-05-18T21:11:01;38.38;;;8.65;;
55758;SDS011;41678;52.126;20.664;2023-05-18T21:16:21;22.63;;;8.38;;
55758;SDS011;41678;52.126;20.664;2023-05-18T21:21:41;17.10;;;7.03;;
55758;SDS011;41678;52.126;20.664;2023-05-18T21:27:01;14.88;;;5.80;;
55758;SDS011;41678;52.126;20.664;2023-05-18T21:32:21;13.73;;;6.03;;
55758;SDS011;41678;52.126;20.664;2023-05-18T21:37:40;14.77;;;6.13;;
55758;SDS011;41678;52.126;20.664;2023-05-18T21:43:00;12.93;;;4.93;;
55758;SDS011;41678;52.126;20.664;2023-05-18T21:48:21;12.40;;;5.88;;
55758;SDS011;41678;52.126;20.664;2023-05-18T21:53:41;14.13;;;5.65;;
55758;SDS011;41678;52.126;20.664;2023-05-18T21:59:01;13.25;;;5.18;;
55758;SDS011;41678;52.126;20.664;2023-05-18T22:04:21;17.00;;;6.00;;
55758;SDS011;41678;52.126;20.664;2023-05-18T22:09:40;18.05;;;5.90;;
55758;SDS011;41678;52.126;20.664;2023-05-18T22:14:59;12.88;;;5.57;;
55758;SDS011;41678;52.126;20.664;2023-05-18T22:20:19;11.32;;;5.05;;
55758;SDS011;41678;52.126;20.664;2023-05-18T22:25:39;12.68;;;5.15;;
55758;SDS011;41678;52.126;20.664;2023-05-18T22:30:59;10.10;;;4.43;;
55758;SDS011;41678;52.126;20.664;2023-05-18T22:36:20;16.73;;;4.07;;
55758;SDS011;41678;52.126;20.664;2023-05-18T22:41:39;13.68;;;5.00;;
55758;SDS011;41678;52.126;20.664;2023-05-18T22:46:59;10.40;;;4.00;;
55758;SDS011;41678;52.126;20.664;2023-05-18T22:52:18;11.77;;;4.68;;
55758;SDS011;41678;52.126;20.664;2023-05-18T22:57:39;11.48;;;3.67;;
55758;SDS011;41678;52.126;20.664;2023-05-18T23:02:59;10.87;;;4.03;;
55758;SDS011;41678;52.126;20.664;2023-05-18T23:08:18;11.65;;;4.80;;
55758;SDS011;41678;52.126;20.664;2023-05-18T23:13:38;11.73;;;4.22;;
55758;SDS011;41678;52.126;20.664;2023-05-18T23:18:58;14.18;;;5.05;;
55758;SDS011;41678;52.126;20.664;2023-05-18T23:24:20;13.82;;;5.82;;
55758;SDS011;41678;52.126;20.664;2023-05-18T23:29:40;17.13;;;5.70;;
55758;SDS011;41678;52.126;20.664;2023-05-18T23:35:01;14.63;;;6.30;;
55758;SDS011;41678;52.126;20.664;2023-05-18T23:40:22;10.02;;;4.72;;
55758;SDS011;41678;52.126;20.664;2023-05-18T23:45:43;22.17;;;5.35;;
55758;SDS011;41678;52.126;20.664;2023-05-18T23:51:03;11.65;;;5.45;;
55758;SDS011;41678;52.126;20.664;2023-05-18T23:56:24;15.50;;;5.37;;
